Terminal Aerodrome Forecast
Issued by NWS

Home | Current Version | Previous Version | Text Only | Print | Product List | Glossary On
Versions: 1 2 3 4 5 6 7 8 9 10 11 12 13 14 15 16 17 18 19 20 21 22 23 24 25 26 27 28 29 30 31 32 33 34 35 36 37
000
FTUS45 KSLC 210703 AAA
TAFLGU
TAF AMD
KLGU 210703Z 2107/2206 VRB03KT P6SM SCT120
     FM211000 VRB03KT 4SM BR BCFG FEW002 SCT120
      TEMPO 2111/2114 1/2SM FZFG VV002
     FM211500 VRB04KT P6SM SCT070 BKN110=

USA.gov is the U.S. government's official web portal to all federal, state and local government web resources and services.